sensor_id;sensor_type;location;lat;lon;timestamp;P1;durP1;ratioP1;P2;durP2;ratioP2
73650;SDS011;61944;52.538;6.108;2022-08-02T00:02:00;14.10;;;5.25;;
73650;SDS011;61944;52.538;6.108;2022-08-02T00:04:25;13.23;;;5.40;;
73650;SDS011;61944;52.538;6.108;2022-08-02T00:06:50;15.90;;;5.55;;
73650;SDS011;61944;52.538;6.108;2022-08-02T00:09:16;10.48;;;4.38;;
73650;SDS011;61944;52.538;6.108;2022-08-02T00:11:41;9.88;;;5.15;;
73650;SDS011;61944;52.538;6.108;2022-08-02T00:14:07;10.40;;;5.45;;
73650;SDS011;61944;52.538;6.108;2022-08-02T00:16:35;9.10;;;5.73;;
73650;SDS011;61944;52.538;6.108;2022-08-02T00:19:00;10.10;;;5.40;;
73650;SDS011;61944;52.538;6.108;2022-08-02T00:21:25;9.95;;;5.22;;
73650;SDS011;61944;52.538;6.108;2022-08-02T00:23:51;9.68;;;5.60;;
73650;SDS011;61944;52.538;6.108;2022-08-02T00:26:16;10.07;;;5.72;;
73650;SDS011;61944;52.538;6.108;2022-08-02T00:28:44;14.47;;;6.47;;
73650;SDS011;61944;52.538;6.108;2022-08-02T00:31:09;11.15;;;5.63;;
73650;SDS011;61944;52.538;6.108;2022-08-02T00:33:38;8.52;;;4.63;;
73650;SDS011;61944;52.538;6.108;2022-08-02T00:36:03;6.05;;;4.57;;
73650;SDS011;61944;52.538;6.108;2022-08-02T00:38:28;14.48;;;5.22;;
73650;SDS011;61944;52.538;6.108;2022-08-02T00:40:53;10.52;;;4.60;;
73650;SDS011;61944;52.538;6.108;2022-08-02T00:43:19;11.25;;;5.28;;
73650;SDS011;61944;52.538;6.108;2022-08-02T00:45:44;12.20;;;4.63;;
73650;SDS011;61944;52.538;6.108;2022-08-02T00:48:10;10.35;;;5.03;;
73650;SDS011;61944;52.538;6.108;2022-08-02T00:50:36;10.30;;;5.13;;
73650;SDS011;61944;52.538;6.108;2022-08-02T00:53:02;8.60;;;5.45;;
73650;SDS011;61944;52.538;6.108;2022-08-02T00:55:27;13.50;;;5.90;;
73650;SDS011;61944;52.538;6.108;2022-08-02T00:57:52;6.63;;;4.35;;
73650;SDS011;61944;52.538;6.108;2022-08-02T01:00:18;14.82;;;6.05;;
73650;SDS011;61944;52.538;6.108;2022-08-02T01:02:43;10.30;;;4.80;;
73650;SDS011;61944;52.538;6.108;2022-08-02T01:05:09;13.90;;;5.13;;
73650;SDS011;61944;52.538;6.108;2022-08-02T01:07:34;11.48;;;5.30;;
73650;SDS011;61944;52.538;6.108;2022-08-02T01:09:59;8.93;;;4.50;;
73650;SDS011;61944;52.538;6.108;2022-08-02T01:12:25;9.93;;;4.53;;
73650;SDS011;61944;52.538;6.108;2022-08-02T01:14:51;7.60;;;4.40;;
73650;SDS011;61944;52.538;6.108;2022-08-02T01:19:45;13.52;;;4.60;;
73650;SDS011;61944;52.538;6.108;2022-08-02T01:22:28;12.23;;;5.50;;
73650;SDS011;61944;52.538;6.108;2022-08-02T01:30:29;9.98;;;5.03;;
73650;SDS011;61944;52.538;6.108;2022-08-02T01:32:57;9.32;;;4.97;;
73650;SDS011;61944;52.538;6.108;2022-08-02T01:35:26;11.52;;;5.47;;
73650;SDS011;61944;52.538;6.108;2022-08-02T01:37:54;12.35;;;5.00;;
73650;SDS011;61944;52.538;6.108;2022-08-02T01:40:21;11.80;;;5.25;;
73650;SDS011;61944;52.538;6.108;2022-08-02T01:42:49;8.73;;;4.68;;
73650;SDS011;61944;52.538;6.108;2022-08-02T01:45:16;7.50;;;4.85;;
73650;SDS011;61944;52.538;6.108;2022-08-02T01:47:43;16.27;;;4.93;;
73650;SDS011;61944;52.538;6.108;2022-08-02T01:50:10;10.45;;;4.65;;
73650;SDS011;61944;52.538;6.108;2022-08-02T01:52:36;15.43;;;5.95;;
73650;SDS011;61944;52.538;6.108;2022-08-02T01:55:06;9.85;;;5.10;;
73650;SDS011;61944;52.538;6.108;2022-08-02T01:57:36;11.60;;;5.10;;
73650;SDS011;61944;52.538;6.108;2022-08-02T02:00:04;10.10;;;4.33;;
73650;SDS011;61944;52.538;6.108;2022-08-02T02:02:31;8.38;;;4.70;;
73650;SDS011;61944;52.538;6.108;2022-08-02T02:04:56;9.90;;;5.38;;
73650;SDS011;61944;52.538;6.108;2022-08-02T02:07:23;13.48;;;5.97;;
73650;SDS011;61944;52.538;6.108;2022-08-02T02:09:49;8.23;;;4.32;;
73650;SDS011;61944;52.538;6.108;2022-08-02T02:12:14;8.25;;;4.60;;
73650;SDS011;61944;52.538;6.108;2022-08-02T02:14:41;8.90;;;5.05;;
73650;SDS011;61944;52.538;6.108;2022-08-02T02:17:07;11.30;;;4.95;;
73650;SDS011;61944;52.538;6.108;2022-08-02T02:19:34;10.13;;;5.22;;
73650;SDS011;61944;52.538;6.108;2022-08-02T02:22:00;12.52;;;4.88;;
73650;SDS011;61944;52.538;6.108;2022-08-02T02:24:25;10.80;;;5.40;;
73650;SDS011;61944;52.538;6.108;2022-08-02T02:26:51;12.70;;;6.00;;
73650;SDS011;61944;52.538;6.108;2022-08-02T02:29:17;12.35;;;4.82;;
73650;SDS011;61944;52.538;6.108;2022-08-02T02:31:43;8.68;;;4.60;;
73650;SDS011;61944;52.538;6.108;2022-08-02T02:34:10;9.00;;;4.88;;
73650;SDS011;61944;52.538;6.108;2022-08-02T02:36:41;14.10;;;5.20;;
73650;SDS011;61944;52.538;6.108;2022-08-02T02:39:09;13.27;;;4.85;;
73650;SDS011;61944;52.538;6.108;2022-08-02T02:41:36;14.60;;;5.55;;
73650;SDS011;61944;52.538;6.108;2022-08-02T02:44:02;11.80;;;5.15;;
73650;SDS011;61944;52.538;6.108;2022-08-02T02:46:32;9.73;;;4.68;;
73650;SDS011;61944;52.538;6.108;2022-08-02T02:48:57;13.63;;;5.57;;
73650;SDS011;61944;52.538;6.108;2022-08-02T02:51:24;12.82;;;5.68;;
73650;SDS011;61944;52.538;6.108;2022-08-02T02:53:49;11.00;;;5.93;;
73650;SDS011;61944;52.538;6.108;2022-08-02T02:56:15;15.30;;;5.38;;
73650;SDS011;61944;52.538;6.108;2022-08-02T02:58:40;8.60;;;4.97;;
73650;SDS011;61944;52.538;6.108;2022-08-02T03:01:07;12.73;;;5.03;;
73650;SDS011;61944;52.538;6.108;2022-08-02T03:03:51;7.43;;;4.88;;
73650;SDS011;61944;52.538;6.108;2022-08-02T03:06:17;17.63;;;5.68;;
73650;SDS011;61944;52.538;6.108;2022-08-02T03:08:46;13.50;;;5.05;;
73650;SDS011;61944;52.538;6.108;2022-08-02T03:11:11;11.70;;;5.10;;
73650;SDS011;61944;52.538;6.108;2022-08-02T03:13:37;11.30;;;5.30;;
73650;SDS011;61944;52.538;6.108;2022-08-02T03:16:03;9.93;;;4.85;;
73650;SDS011;61944;52.538;6.108;2022-08-02T03:18:29;8.38;;;5.20;;
73650;SDS011;61944;52.538;6.108;2022-08-02T03:20:58;12.95;;;5.97;;
73650;SDS011;61944;52.538;6.108;2022-08-02T03:23:23;11.70;;;5.80;;
73650;SDS011;61944;52.538;6.108;2022-08-02T03:25:48;14.27;;;5.88;;
73650;SDS011;61944;52.538;6.108;2022-08-02T03:28:14;13.63;;;5.85;;
73650;SDS011;61944;52.538;6.108;2022-08-02T03:30:39;10.52;;;5.75;;
73650;SDS011;61944;52.538;6.108;2022-08-02T03:33:04;19.27;;;5.90;;
73650;SDS011;61944;52.538;6.108;2022-08-02T03:35:29;12.32;;;7.07;;
73650;SDS011;61944;52.538;6.108;2022-08-02T03:37:55;10.18;;;5.47;;
73650;SDS011;61944;52.538;6.108;2022-08-02T03:40:21;9.27;;;6.63;;
73650;SDS011;61944;52.538;6.108;2022-08-02T03:42:47;11.43;;;6.18;;
73650;SDS011;61944;52.538;6.108;2022-08-02T03:45:13;12.32;;;6.43;;
73650;SDS011;61944;52.538;6.108;2022-08-02T03:47:39;10.57;;;6.43;;
73650;SDS011;61944;52.538;6.108;2022-08-02T03:50:05;14.95;;;6.22;;
73650;SDS011;61944;52.538;6.108;2022-08-02T03:52:31;9.75;;;6.03;;
73650;SDS011;61944;52.538;6.108;2022-08-02T03:54:57;13.63;;;5.47;;
73650;SDS011;61944;52.538;6.108;2022-08-02T03:57:22;11.82;;;6.13;;
73650;SDS011;61944;52.538;6.108;2022-08-02T03:59:47;9.73;;;5.60;;
73650;SDS011;61944;52.538;6.108;2022-08-02T04:02:13;15.02;;;5.85;;
73650;SDS011;61944;52.538;6.108;2022-08-02T04:04:38;14.07;;;5.95;;
73650;SDS011;61944;52.538;6.108;2022-08-02T04:07:03;10.32;;;5.30;;
73650;SDS011;61944;52.538;6.108;2022-08-02T04:09:29;17.42;;;6.50;;
73650;SDS011;61944;52.538;6.108;2022-08-02T04:11:54;10.13;;;5.53;;
73650;SDS011;61944;52.538;6.108;2022-08-02T04:14:22;12.98;;;6.32;;
73650;SDS011;61944;52.538;6.108;2022-08-02T04:16:52;9.48;;;5.28;;
73650;SDS011;61944;52.538;6.108;2022-08-02T04:20:01;10.70;;;5.32;;
73650;SDS011;61944;52.538;6.108;2022-08-02T04:22:08;12.70;;;5.85;;
73650;SDS011;61944;52.538;6.108;2022-08-02T04:24:37;12.88;;;5.50;;
73650;SDS011;61944;52.538;6.108;2022-08-02T04:27:03;9.30;;;5.75;;
73650;SDS011;61944;52.538;6.108;2022-08-02T04:29:29;9.07;;;5.13;;
73650;SDS011;61944;52.538;6.108;2022-08-02T04:31:54;13.38;;;7.13;;
73650;SDS011;61944;52.538;6.108;2022-08-02T04:34:20;11.95;;;5.55;;
73650;SDS011;61944;52.538;6.108;2022-08-02T04:36:45;12.10;;;5.57;;
73650;SDS011;61944;52.538;6.108;2022-08-02T04:39:10;8.45;;;5.00;;
73650;SDS011;61944;52.538;6.108;2022-08-02T04:41:36;10.77;;;5.40;;
73650;SDS011;61944;52.538;6.108;2022-08-02T04:44:02;8.38;;;5.60;;
73650;SDS011;61944;52.538;6.108;2022-08-02T04:46:27;8.75;;;5.07;;
73650;SDS011;61944;52.538;6.108;2022-08-02T04:48:52;14.52;;;6.15;;
73650;SDS011;61944;52.538;6.108;2022-08-02T04:51:17;13.02;;;6.38;;
73650;SDS011;61944;52.538;6.108;2022-08-02T04:53:46;13.80;;;6.53;;
73650;SDS011;61944;52.538;6.108;2022-08-02T04:56:11;10.88;;;5.18;;
73650;SDS011;61944;52.538;6.108;2022-08-02T04:58:36;14.53;;;6.33;;
73650;SDS011;61944;52.538;6.108;2022-08-02T05:01:01;16.45;;;6.43;;
73650;SDS011;61944;52.538;6.108;2022-08-02T05:03:26;9.07;;;5.70;;
73650;SDS011;61944;52.538;6.108;2022-08-02T05:05:52;8.25;;;5.13;;
73650;SDS011;61944;52.538;6.108;2022-08-02T05:08:20;14.90;;;7.00;;
73650;SDS011;61944;52.538;6.108;2022-08-02T05:10:48;9.93;;;6.78;;
73650;SDS011;61944;52.538;6.108;2022-08-02T05:13:13;13.77;;;6.85;;
73650;SDS011;61944;52.538;6.108;2022-08-02T05:15:38;19.00;;;7.18;;
73650;SDS011;61944;52.538;6.108;2022-08-02T05:18:04;12.27;;;6.03;;
73650;SDS011;61944;52.538;6.108;2022-08-02T05:20:29;12.73;;;7.38;;
73650;SDS011;61944;52.538;6.108;2022-08-02T05:22:54;12.80;;;6.47;;
73650;SDS011;61944;52.538;6.108;2022-08-02T05:25:20;12.70;;;6.22;;
73650;SDS011;61944;52.538;6.108;2022-08-02T05:27:45;13.20;;;6.45;;
73650;SDS011;61944;52.538;6.108;2022-08-02T05:30:10;11.55;;;6.00;;
73650;SDS011;61944;52.538;6.108;2022-08-02T05:32:46;23.88;;;7.47;;
73650;SDS011;61944;52.538;6.108;2022-08-02T05:35:11;9.55;;;7.07;;
73650;SDS011;61944;52.538;6.108;2022-08-02T05:37:37;14.38;;;6.65;;
73650;SDS011;61944;52.538;6.108;2022-08-02T05:40:03;8.88;;;5.65;;
73650;SDS011;61944;52.538;6.108;2022-08-02T05:42:31;11.95;;;6.40;;
73650;SDS011;61944;52.538;6.108;2022-08-02T05:44:56;10.23;;;6.78;;
73650;SDS011;61944;52.538;6.108;2022-08-02T05:47:24;14.82;;;6.82;;
73650;SDS011;61944;52.538;6.108;2022-08-02T05:49:49;10.88;;;5.97;;
73650;SDS011;61944;52.538;6.108;2022-08-02T05:52:16;10.65;;;5.90;;
73650;SDS011;61944;52.538;6.108;2022-08-02T05:57:10;14.57;;;7.67;;
73650;SDS011;61944;52.538;6.108;2022-08-02T06:02:19;11.73;;;6.82;;
73650;SDS011;61944;52.538;6.108;2022-08-02T06:04:53;4.75;;;3.28;;
73650;SDS011;61944;52.538;6.108;2022-08-02T06:07:20;7.50;;;3.22;;
73650;SDS011;61944;52.538;6.108;2022-08-02T06:09:46;8.90;;;5.00;;
73650;SDS011;61944;52.538;6.108;2022-08-02T06:12:12;29.33;;;7.45;;
73650;SDS011;61944;52.538;6.108;2022-08-02T06:14:40;12.93;;;6.78;;
73650;SDS011;61944;52.538;6.108;2022-08-02T06:17:05;18.20;;;7.13;;
73650;SDS011;61944;52.538;6.108;2022-08-02T06:19:31;16.15;;;6.28;;
73650;SDS011;61944;52.538;6.108;2022-08-02T06:21:59;15.30;;;6.60;;
73650;SDS011;61944;52.538;6.108;2022-08-02T06:24:39;16.43;;;7.93;;
73650;SDS011;61944;52.538;6.108;2022-08-02T06:27:06;13.40;;;7.85;;
73650;SDS011;61944;52.538;6.108;2022-08-02T06:29:34;12.32;;;6.13;;
73650;SDS011;61944;52.538;6.108;2022-08-02T06:32:04;16.15;;;6.85;;
73650;SDS011;61944;52.538;6.108;2022-08-02T06:34:37;12.25;;;6.90;;
73650;SDS011;61944;52.538;6.108;2022-08-02T06:37:05;12.63;;;7.57;;
73650;SDS011;61944;52.538;6.108;2022-08-02T06:39:38;17.25;;;7.28;;
73650;SDS011;61944;52.538;6.108;2022-08-02T06:42:09;12.20;;;6.00;;
73650;SDS011;61944;52.538;6.108;2022-08-02T06:44:35;13.93;;;8.05;;
73650;SDS011;61944;52.538;6.108;2022-08-02T06:47:02;16.00;;;6.65;;
73650;SDS011;61944;52.538;6.108;2022-08-02T06:49:28;19.45;;;8.15;;
73650;SDS011;61944;52.538;6.108;2022-08-02T06:51:53;13.70;;;7.18;;
73650;SDS011;61944;52.538;6.108;2022-08-02T06:54:18;10.38;;;6.38;;
73650;SDS011;61944;52.538;6.108;2022-08-02T06:56:45;13.07;;;7.05;;
73650;SDS011;61944;52.538;6.108;2022-08-02T06:59:11;11.70;;;6.82;;
73650;SDS011;61944;52.538;6.108;2022-08-02T07:01:36;10.30;;;6.68;;
73650;SDS011;61944;52.538;6.108;2022-08-02T07:04:02;10.93;;;5.97;;
73650;SDS011;61944;52.538;6.108;2022-08-02T07:06:27;10.57;;;7.13;;
73650;SDS011;61944;52.538;6.108;2022-08-02T07:08:53;23.45;;;6.78;;
73650;SDS011;61944;52.538;6.108;2022-08-02T07:11:18;12.80;;;7.00;;
73650;SDS011;61944;52.538;6.108;2022-08-02T07:13:43;11.55;;;6.30;;
73650;SDS011;61944;52.538;6.108;2022-08-02T07:16:08;16.52;;;6.50;;
73650;SDS011;61944;52.538;6.108;2022-08-02T07:18:34;13.38;;;6.45;;
73650;SDS011;61944;52.538;6.108;2022-08-02T07:20:59;11.63;;;5.97;;
73650;SDS011;61944;52.538;6.108;2022-08-02T07:23:25;16.77;;;6.50;;
73650;SDS011;61944;52.538;6.108;2022-08-02T07:25:50;8.93;;;5.47;;
73650;SDS011;61944;52.538;6.108;2022-08-02T07:28:15;12.52;;;5.03;;
73650;SDS011;61944;52.538;6.108;2022-08-02T07:30:41;13.15;;;5.32;;
73650;SDS011;61944;52.538;6.108;2022-08-02T07:33:06;14.82;;;5.93;;
73650;SDS011;61944;52.538;6.108;2022-08-02T07:35:31;9.35;;;5.50;;
73650;SDS011;61944;52.538;6.108;2022-08-02T07:37:57;13.15;;;6.53;;
73650;SDS011;61944;52.538;6.108;2022-08-02T07:40:22;11.43;;;4.93;;
73650;SDS011;61944;52.538;6.108;2022-08-02T07:42:49;18.83;;;6.50;;
73650;SDS011;61944;52.538;6.108;2022-08-02T07:45:16;14.70;;;6.20;;
73650;SDS011;61944;52.538;6.108;2022-08-02T07:47:42;14.85;;;7.90;;
73650;SDS011;61944;52.538;6.108;2022-08-02T07:50:08;9.98;;;5.65;;
73650;SDS011;61944;52.538;6.108;2022-08-02T07:52:34;10.35;;;5.07;;
73650;SDS011;61944;52.538;6.108;2022-08-02T07:54:59;13.13;;;5.47;;
73650;SDS011;61944;52.538;6.108;2022-08-02T07:57:24;13.10;;;5.30;;
73650;SDS011;61944;52.538;6.108;2022-08-02T07:59:49;13.98;;;5.20;;
73650;SDS011;61944;52.538;6.108;2022-08-02T08:02:15;10.73;;;5.93;;
73650;SDS011;61944;52.538;6.108;2022-08-02T08:04:40;10.05;;;4.63;;
73650;SDS011;61944;52.538;6.108;2022-08-02T08:07:06;12.17;;;6.37;;
73650;SDS011;61944;52.538;6.108;2022-08-02T08:09:34;10.93;;;6.25;;
73650;SDS011;61944;52.538;6.108;2022-08-02T08:12:03;22.45;;;5.57;;
73650;SDS011;61944;52.538;6.108;2022-08-02T08:14:29;11.00;;;4.75;;
73650;SDS011;61944;52.538;6.108;2022-08-02T08:16:54;13.13;;;5.00;;
73650;SDS011;61944;52.538;6.108;2022-08-02T08:19:20;8.68;;;4.57;;
73650;SDS011;61944;52.538;6.108;2022-08-02T08:21:48;10.57;;;5.73;;
73650;SDS011;61944;52.538;6.108;2022-08-02T08:24:13;9.85;;;4.10;;
73650;SDS011;61944;52.538;6.108;2022-08-02T08:26:38;12.23;;;4.13;;
73650;SDS011;61944;52.538;6.108;2022-08-02T08:29:04;8.05;;;3.90;;
73650;SDS011;61944;52.538;6.108;2022-08-02T08:31:31;8.27;;;4.60;;
73650;SDS011;61944;52.538;6.108;2022-08-02T08:33:56;9.63;;;4.57;;
73650;SDS011;61944;52.538;6.108;2022-08-02T08:36:24;5.43;;;3.83;;
73650;SDS011;61944;52.538;6.108;2022-08-02T08:38:50;10.10;;;3.95;;
73650;SDS011;61944;52.538;6.108;2022-08-02T08:41:16;9.02;;;4.57;;
73650;SDS011;61944;52.538;6.108;2022-08-02T08:43:41;8.45;;;4.80;;
73650;SDS011;61944;52.538;6.108;2022-08-02T08:46:07;9.35;;;4.32;;
73650;SDS011;61944;52.538;6.108;2022-08-02T08:48:34;11.88;;;4.47;;
73650;SDS011;61944;52.538;6.108;2022-08-02T08:51:11;12.00;;;4.80;;
73650;SDS011;61944;52.538;6.108;2022-08-02T08:53:41;9.02;;;4.50;;
73650;SDS011;61944;52.538;6.108;2022-08-02T08:56:06;6.18;;;3.88;;
73650;SDS011;61944;52.538;6.108;2022-08-02T08:58:32;8.23;;;4.10;;
73650;SDS011;61944;52.538;6.108;2022-08-02T09:00:57;8.48;;;4.15;;
73650;SDS011;61944;52.538;6.108;2022-08-02T09:03:26;5.82;;;4.15;;
73650;SDS011;61944;52.538;6.108;2022-08-02T09:05:51;7.03;;;4.10;;
73650;SDS011;61944;52.538;6.108;2022-08-02T09:08:17;8.98;;;5.78;;
73650;SDS011;61944;52.538;6.108;2022-08-02T09:10:44;9.98;;;5.10;;
73650;SDS011;61944;52.538;6.108;2022-08-02T09:15:35;9.37;;;4.70;;
73650;SDS011;61944;52.538;6.108;2022-08-02T09:18:01;6.25;;;4.10;;
73650;SDS011;61944;52.538;6.108;2022-08-02T09:20:26;8.93;;;4.90;;
73650;SDS011;61944;52.538;6.108;2022-08-02T09:23:07;13.57;;;5.40;;
73650;SDS011;61944;52.538;6.108;2022-08-02T09:25:33;10.63;;;4.72;;
73650;SDS011;61944;52.538;6.108;2022-08-02T09:27:58;7.18;;;4.28;;
73650;SDS011;61944;52.538;6.108;2022-08-02T09:30:25;10.05;;;4.57;;
73650;SDS011;61944;52.538;6.108;2022-08-02T09:32:50;13.82;;;5.40;;
73650;SDS011;61944;52.538;6.108;2022-08-02T09:35:31;9.57;;;4.18;;
73650;SDS011;61944;52.538;6.108;2022-08-02T09:38:09;22.23;;;4.20;;
73650;SDS011;61944;52.538;6.108;2022-08-02T09:40:36;7.78;;;4.07;;
73650;SDS011;61944;52.538;6.108;2022-08-02T09:43:02;7.25;;;4.65;;
73650;SDS011;61944;52.538;6.108;2022-08-02T09:45:31;8.38;;;4.57;;
73650;SDS011;61944;52.538;6.108;2022-08-02T09:48:06;7.40;;;3.95;;
73650;SDS011;61944;52.538;6.108;2022-08-02T09:50:32;8.20;;;3.90;;
73650;SDS011;61944;52.538;6.108;2022-08-02T09:52:57;7.03;;;3.58;;
73650;SDS011;61944;52.538;6.108;2022-08-02T09:55:23;5.07;;;2.42;;
73650;SDS011;61944;52.538;6.108;2022-08-02T09:57:48;4.55;;;2.75;;
73650;SDS011;61944;52.538;6.108;2022-08-02T10:00:14;3.63;;;2.47;;
73650;SDS011;61944;52.538;6.108;2022-08-02T10:02:39;3.83;;;3.05;;
73650;SDS011;61944;52.538;6.108;2022-08-02T10:05:28;3.00;;;2.13;;
73650;SDS011;61944;52.538;6.108;2022-08-02T10:07:53;4.28;;;2.00;;
73650;SDS011;61944;52.538;6.108;2022-08-02T10:10:18;5.47;;;2.13;;
73650;SDS011;61944;52.538;6.108;2022-08-02T10:12:44;4.18;;;3.15;;
73650;SDS011;61944;52.538;6.108;2022-08-02T10:15:09;3.38;;;2.42;;
73650;SDS011;61944;52.538;6.108;2022-08-02T10:17:34;4.03;;;2.20;;
73650;SDS011;61944;52.538;6.108;2022-08-02T10:20:00;7.93;;;3.40;;
73650;SDS011;61944;52.538;6.108;2022-08-02T10:22:25;2.83;;;1.90;;
73650;SDS011;61944;52.538;6.108;2022-08-02T10:24:51;4.93;;;3.22;;
73650;SDS011;61944;52.538;6.108;2022-08-02T10:27:17;3.70;;;2.88;;
73650;SDS011;61944;52.538;6.108;2022-08-02T10:29:45;5.63;;;3.17;;
73650;SDS011;61944;52.538;6.108;2022-08-02T10:32:15;7.65;;;3.70;;
73650;SDS011;61944;52.538;6.108;2022-08-02T10:34:49;9.75;;;4.40;;
73650;SDS011;61944;52.538;6.108;2022-08-02T10:37:16;7.45;;;3.83;;
73650;SDS011;61944;52.538;6.108;2022-08-02T10:39:45;7.43;;;3.60;;
73650;SDS011;61944;52.538;6.108;2022-08-02T10:42:11;10.40;;;4.65;;
73650;SDS011;61944;52.538;6.108;2022-08-02T10:44:36;8.77;;;4.60;;
73650;SDS011;61944;52.538;6.108;2022-08-02T10:47:18;5.60;;;4.50;;
73650;SDS011;61944;52.538;6.108;2022-08-02T10:49:48;7.90;;;4.50;;
73650;SDS011;61944;52.538;6.108;2022-08-02T10:52:14;7.55;;;5.40;;
73650;SDS011;61944;52.538;6.108;2022-08-02T10:54:44;8.23;;;4.10;;
73650;SDS011;61944;52.538;6.108;2022-08-02T10:57:15;6.53;;;4.18;;
73650;SDS011;61944;52.538;6.108;2022-08-02T10:59:44;9.93;;;4.97;;
73650;SDS011;61944;52.538;6.108;2022-08-02T11:02:09;9.18;;;5.30;;
73650;SDS011;61944;52.538;6.108;2022-08-02T11:07:16;9.33;;;4.40;;
73650;SDS011;61944;52.538;6.108;2022-08-02T11:09:45;9.18;;;4.68;;
73650;SDS011;61944;52.538;6.108;2022-08-02T11:12:13;9.45;;;4.15;;
73650;SDS011;61944;52.538;6.108;2022-08-02T11:14:40;6.72;;;4.00;;
73650;SDS011;61944;52.538;6.108;2022-08-02T11:19:31;5.57;;;3.40;;
73650;SDS011;61944;52.538;6.108;2022-08-02T11:22:00;4.72;;;3.42;;
73650;SDS011;61944;52.538;6.108;2022-08-02T11:24:27;4.32;;;2.58;;
73650;SDS011;61944;52.538;6.108;2022-08-02T11:26:52;7.25;;;3.97;;
73650;SDS011;61944;52.538;6.108;2022-08-02T11:29:18;7.47;;;3.65;;
73650;SDS011;61944;52.538;6.108;2022-08-02T11:31:44;6.32;;;4.45;;
73650;SDS011;61944;52.538;6.108;2022-08-02T11:34:09;7.53;;;4.10;;
73650;SDS011;61944;52.538;6.108;2022-08-02T11:36:48;6.75;;;3.75;;
73650;SDS011;61944;52.538;6.108;2022-08-02T11:39:15;6.35;;;3.63;;
73650;SDS011;61944;52.538;6.108;2022-08-02T11:41:41;5.03;;;3.78;;
73650;SDS011;61944;52.538;6.108;2022-08-02T11:44:06;5.70;;;3.17;;
73650;SDS011;61944;52.538;6.108;2022-08-02T11:46:31;9.30;;;3.17;;
73650;SDS011;61944;52.538;6.108;2022-08-02T11:48:57;4.47;;;3.20;;
73650;SDS011;61944;52.538;6.108;2022-08-02T11:51:34;6.45;;;4.32;;
73650;SDS011;61944;52.538;6.108;2022-08-02T11:53:59;4.75;;;3.08;;
73650;SDS011;61944;52.538;6.108;2022-08-02T11:56:29;4.53;;;3.03;;
73650;SDS011;61944;52.538;6.108;2022-08-02T11:59:03;5.33;;;3.40;;
73650;SDS011;61944;52.538;6.108;2022-08-02T12:03:56;10.82;;;3.75;;
73650;SDS011;61944;52.538;6.108;2022-08-02T12:06:28;5.28;;;3.50;;
73650;SDS011;61944;52.538;6.108;2022-08-02T12:09:07;5.35;;;4.45;;
73650;SDS011;61944;52.538;6.108;2022-08-02T12:11:32;7.25;;;4.07;;
73650;SDS011;61944;52.538;6.108;2022-08-02T12:13:58;5.53;;;3.90;;
73650;SDS011;61944;52.538;6.108;2022-08-02T12:16:23;7.22;;;3.95;;
73650;SDS011;61944;52.538;6.108;2022-08-02T12:19:07;7.80;;;3.95;;
73650;SDS011;61944;52.538;6.108;2022-08-02T12:21:53;7.47;;;4.90;;
73650;SDS011;61944;52.538;6.108;2022-08-02T12:24:30;9.07;;;4.97;;
73650;SDS011;61944;52.538;6.108;2022-08-02T12:26:55;9.00;;;5.93;;
73650;SDS011;61944;52.538;6.108;2022-08-02T12:31:58;8.20;;;4.53;;
73650;SDS011;61944;52.538;6.108;2022-08-02T12:34:24;8.85;;;4.93;;
73650;SDS011;61944;52.538;6.108;2022-08-02T12:37:04;8.52;;;4.72;;
73650;SDS011;61944;52.538;6.108;2022-08-02T12:42:01;8.90;;;5.38;;
73650;SDS011;61944;52.538;6.108;2022-08-02T12:44:27;7.43;;;4.78;;
73650;SDS011;61944;52.538;6.108;2022-08-02T12:47:03;10.00;;;6.53;;
73650;SDS011;61944;52.538;6.108;2022-08-02T12:49:28;11.07;;;7.30;;
73650;SDS011;61944;52.538;6.108;2022-08-02T12:51:54;10.65;;;6.15;;
73650;SDS011;61944;52.538;6.108;2022-08-02T12:54:20;10.88;;;7.15;;
73650;SDS011;61944;52.538;6.108;2022-08-02T12:56:46;9.02;;;6.53;;
73650;SDS011;61944;52.538;6.108;2022-08-02T12:59:12;11.77;;;6.05;;
73650;SDS011;61944;52.538;6.108;2022-08-02T13:01:37;7.13;;;5.63;;
73650;SDS011;61944;52.538;6.108;2022-08-02T13:04:03;9.45;;;6.45;;
73650;SDS011;61944;52.538;6.108;2022-08-02T13:06:29;7.93;;;5.93;;
73650;SDS011;61944;52.538;6.108;2022-08-02T13:08:54;10.05;;;6.25;;
73650;SDS011;61944;52.538;6.108;2022-08-02T13:11:20;9.18;;;5.95;;
73650;SDS011;61944;52.538;6.108;2022-08-02T13:13:48;8.02;;;6.10;;
73650;SDS011;61944;52.538;6.108;2022-08-02T13:16:15;7.95;;;5.55;;
73650;SDS011;61944;52.538;6.108;2022-08-02T13:18:41;7.75;;;5.53;;
73650;SDS011;61944;52.538;6.108;2022-08-02T13:21:09;7.45;;;5.50;;
73650;SDS011;61944;52.538;6.108;2022-08-02T13:23:35;7.30;;;5.47;;
73650;SDS011;61944;52.538;6.108;2022-08-02T13:26:00;8.07;;;6.03;;
73650;SDS011;61944;52.538;6.108;2022-08-02T13:28:26;7.65;;;5.07;;
73650;SDS011;61944;52.538;6.108;2022-08-02T13:30:51;7.70;;;5.00;;
73650;SDS011;61944;52.538;6.108;2022-08-02T13:33:16;6.95;;;5.10;;
73650;SDS011;61944;52.538;6.108;2022-08-02T13:35:45;6.95;;;5.05;;
73650;SDS011;61944;52.538;6.108;2022-08-02T13:38:13;11.50;;;6.00;;
73650;SDS011;61944;52.538;6.108;2022-08-02T13:40:39;7.43;;;4.93;;
73650;SDS011;61944;52.538;6.108;2022-08-02T13:43:30;8.27;;;4.63;;
73650;SDS011;61944;52.538;6.108;2022-08-02T13:45:56;4.78;;;4.28;;
73650;SDS011;61944;52.538;6.108;2022-08-02T13:48:21;7.57;;;3.60;;
73650;SDS011;61944;52.538;6.108;2022-08-02T13:50:46;41.45;;;6.05;;
73650;SDS011;61944;52.538;6.108;2022-08-02T13:53:11;8.73;;;3.95;;
73650;SDS011;61944;52.538;6.108;2022-08-02T13:55:36;5.73;;;4.10;;
73650;SDS011;61944;52.538;6.108;2022-08-02T13:58:03;6.43;;;3.60;;
73650;SDS011;61944;52.538;6.108;2022-08-02T14:00:29;11.45;;;4.00;;
73650;SDS011;61944;52.538;6.108;2022-08-02T14:02:54;6.43;;;3.50;;
73650;SDS011;61944;52.538;6.108;2022-08-02T14:05:19;6.93;;;3.57;;
73650;SDS011;61944;52.538;6.108;2022-08-02T14:07:45;8.37;;;3.77;;
73650;SDS011;61944;52.538;6.108;2022-08-02T14:10:10;5.30;;;3.65;;
73650;SDS011;61944;52.538;6.108;2022-08-02T14:12:35;6.18;;;3.60;;
73650;SDS011;61944;52.538;6.108;2022-08-02T14:15:00;4.75;;;3.58;;
73650;SDS011;61944;52.538;6.108;2022-08-02T14:17:26;7.30;;;3.37;;
73650;SDS011;61944;52.538;6.108;2022-08-02T14:19:51;4.37;;;3.03;;
73650;SDS011;61944;52.538;6.108;2022-08-02T14:22:16;4.50;;;2.97;;
73650;SDS011;61944;52.538;6.108;2022-08-02T14:24:41;3.65;;;3.35;;
73650;SDS011;61944;52.538;6.108;2022-08-02T14:27:07;6.15;;;2.75;;
73650;SDS011;61944;52.538;6.108;2022-08-02T14:29:33;5.28;;;3.33;;
73650;SDS011;61944;52.538;6.108;2022-08-02T14:31:58;4.53;;;3.35;;
73650;SDS011;61944;52.538;6.108;2022-08-02T14:34:24;3.95;;;3.20;;
73650;SDS011;61944;52.538;6.108;2022-08-02T14:36:49;4.80;;;2.67;;
73650;SDS011;61944;52.538;6.108;2022-08-02T14:39:14;3.45;;;2.50;;
73650;SDS011;61944;52.538;6.108;2022-08-02T14:41:39;4.43;;;3.08;;
73650;SDS011;61944;52.538;6.108;2022-08-02T14:44:05;6.93;;;3.20;;
73650;SDS011;61944;52.538;6.108;2022-08-02T14:46:31;4.20;;;3.60;;
73650;SDS011;61944;52.538;6.108;2022-08-02T14:48:57;4.72;;;2.80;;
73650;SDS011;61944;52.538;6.108;2022-08-02T14:51:25;4.57;;;2.83;;
73650;SDS011;61944;52.538;6.108;2022-08-02T14:53:50;3.77;;;3.07;;
73650;SDS011;61944;52.538;6.108;2022-08-02T14:56:16;5.03;;;3.07;;
73650;SDS011;61944;52.538;6.108;2022-08-02T14:58:41;5.78;;;3.03;;
73650;SDS011;61944;52.538;6.108;2022-08-02T15:01:06;3.80;;;2.87;;
73650;SDS011;61944;52.538;6.108;2022-08-02T15:03:31;5.38;;;2.58;;
73650;SDS011;61944;52.538;6.108;2022-08-02T15:05:56;2.37;;;2.17;;
73650;SDS011;61944;52.538;6.108;2022-08-02T15:08:22;7.82;;;2.55;;